Time;durP1;ratioP1;P1;durP2;ratioP2;P2;SDS_P1;SDS_P2;PMS_P1;PMS_P2;Temp;Humidity;BMP_temperature;BMP_pressure;BME280_temperature;BME280_humidity;BME280_pressure;Samples;Min_cycle;Max_cycle;Signal;HPM_P1;HPM_P2
2022/07/01 00:00:55;;;;;;;0.28;0.28;;;22.40;85.40;;;;;;4139576;28;20085;-75
2022/07/01 00:02:56;;;;;;;1.65;0.20;;;22.30;85.30;;;;;;4139372;28;20061;-75
2022/07/01 00:04:58;;;;;;;0.50;0.32;;;22.30;85.20;;;;;;4139397;28;20156;-76
2022/07/01 00:07:00;;;;;;;0.20;0.20;;;22.30;85.00;;;;;;4139157;28;20085;-75
2022/07/01 00:09:04;;;;;;;0.40;0.40;;;22.40;85.00;;;;;;4144145;28;20672;-76
2022/07/01 00:11:06;;;;;;;1.52;0.30;;;22.30;84.90;;;;;;4141465;28;20177;-75
2022/07/01 00:13:07;;;;;;;1.42;0.30;;;22.40;84.80;;;;;;4147238;28;20153;-76
2022/07/01 00:15:10;;;;;;;0.40;0.20;;;22.30;84.70;;;;;;4147177;28;20125;-76
2022/07/01 00:17:11;;;;;;;0.47;0.28;;;22.30;84.70;;;;;;4144198;28;20134;-76
2022/07/01 00:19:13;;;;;;;0.30;0.20;;;22.30;84.70;;;;;;4142073;28;20065;-76
2022/07/01 00:21:15;;;;;;;0.57;0.40;;;22.30;84.70;;;;;;4138329;28;20985;-76
2022/07/01 00:23:17;;;;;;;0.10;0.10;;;22.30;84.50;;;;;;4137443;28;20170;-76
2022/07/01 00:25:19;;;;;;;0.32;0.20;;;22.30;84.40;;;;;;4140192;28;20672;-76
2022/07/01 00:27:22;;;;;;;0.88;0.30;;;22.30;84.30;;;;;;4141036;28;20062;-76
2022/07/01 00:29:23;;;;;;;0.20;0.20;;;22.30;84.30;;;;;;4143349;28;20177;-75
2022/07/01 00:31:25;;;;;;;2.30;0.30;;;22.30;84.20;;;;;;4140307;28;20062;-76
2022/07/01 00:33:27;;;;;;;1.35;0.20;;;22.30;84.10;;;;;;4136847;28;20098;-76
2022/07/01 00:35:29;;;;;;;0.30;0.20;;;22.30;84.00;;;;;;4140844;28;20069;-76
2022/07/01 00:37:31;;;;;;;0.10;0.10;;;22.30;83.90;;;;;;4154707;22;20050;-77
2022/07/01 00:39:34;;;;;;;0.35;0.25;;;22.30;83.90;;;;;;4133408;28;20070;-74
2022/07/01 00:41:37;;;;;;;0.20;0.20;;;22.30;83.80;;;;;;4131914;28;20062;-74
2022/07/01 00:43:39;;;;;;;1.25;0.28;;;22.30;83.80;;;;;;4131640;28;20066;-75
2022/07/01 00:45:57;;;;;;;0.77;0.30;;;22.20;83.60;;;;;;4132029;28;20059;-75
2022/07/01 00:47:58;;;;;;;0.85;0.20;;;22.20;83.50;;;;;;4135629;28;20144;-74
2022/07/01 00:50:00;;;;;;;0.57;0.20;;;22.20;83.50;;;;;;4130558;28;20171;-74
2022/07/01 00:52:02;;;;;;;1.95;0.20;;;22.20;83.40;;;;;;4131565;28;20178;-75
2022/07/01 00:54:04;;;;;;;0.28;0.20;;;22.20;83.40;;;;;;4134441;28;20101;-74
2022/07/01 00:56:06;;;;;;;0.68;0.30;;;22.20;83.40;;;;;;4137009;28;20109;-75
2022/07/01 00:58:09;;;;;;;0.38;0.25;;;22.20;83.30;;;;;;4134926;28;20062;-74
2022/07/01 01:00:14;;;;;;;0.15;0.15;;;22.20;83.40;;;;;;4137234;28;20069;-74
2022/07/01 01:02:16;;;;;;;0.20;0.15;;;22.20;83.30;;;;;;4137358;28;20063;-75
2022/07/01 01:04:18;;;;;;;0.28;0.20;;;22.20;83.30;;;;;;4135698;28;20058;-74
2022/07/01 01:06:19;;;;;;;1.95;0.30;;;22.20;83.20;;;;;;4132343;28;20146;-75
2022/07/01 01:08:21;;;;;;;0.63;0.20;;;22.20;83.10;;;;;;4135968;28;20063;-75
2022/07/01 01:10:24;;;;;;;2.47;0.30;;;22.20;83.10;;;;;;4133762;28;20169;-75
2022/07/01 01:12:26;;;;;;;0.50;0.30;;;22.20;83.00;;;;;;4133535;28;20059;-74
2022/07/01 01:14:28;;;;;;;0.38;0.30;;;22.20;83.00;;;;;;4134158;28;20065;-75
2022/07/01 01:16:29;;;;;;;1.10;0.20;;;22.20;83.00;;;;;;4133169;28;20058;-74
2022/07/01 01:18:33;;;;;;;0.40;0.20;;;22.20;82.90;;;;;;4136540;28;21474;-75
2022/07/01 01:20:36;;;;;;;0.20;0.20;;;22.20;82.90;;;;;;4135058;28;20063;-75
2022/07/01 01:22:38;;;;;;;1.42;0.20;;;22.20;82.90;;;;;;4131225;28;20063;-74
2022/07/01 01:24:41;;;;;;;1.45;0.20;;;22.20;82.80;;;;;;4134658;28;21157;-74
2022/07/01 01:26:42;;;;;;;0.20;0.10;;;22.10;82.70;;;;;;4126774;28;20660;-75
2022/07/01 01:28:44;;;;;;;0.65;0.20;;;22.10;82.70;;;;;;4133627;28;20950;-75
2022/07/01 01:30:46;;;;;;;0.20;0.20;;;22.20;82.70;;;;;;4133740;28;20163;-75
2022/07/01 01:32:49;;;;;;;0.57;0.10;;;22.10;82.60;;;;;;4134131;28;20902;-75
2022/07/01 01:34:51;;;;;;;0.20;0.20;;;22.10;82.60;;;;;;4133522;28;20157;-75
2022/07/01 01:36:53;;;;;;;0.40;0.20;;;22.10;82.50;;;;;;4133564;28;20097;-75
2022/07/01 01:38:58;;;;;;;0.13;0.13;;;22.10;82.50;;;;;;4133041;28;20098;-76
2022/07/01 01:41:00;;;;;;;0.85;0.10;;;22.10;82.50;;;;;;4134424;28;20641;-75
2022/07/01 01:43:02;;;;;;;0.38;0.10;;;22.10;82.50;;;;;;4133313;28;20967;-75
2022/07/01 01:45:04;;;;;;;0.10;0.10;;;22.10;82.50;;;;;;4133996;28;20105;-75
2022/07/01 01:47:06;;;;;;;0.13;0.13;;;22.10;82.40;;;;;;4133414;28;20063;-75
2022/07/01 01:49:08;;;;;;;0.43;0.13;;;22.10;82.30;;;;;;4133917;28;20086;-75
2022/07/01 01:51:10;;;;;;;0.15;0.10;;;22.10;82.30;;;;;;4134176;28;20059;-75
2022/07/01 01:53:12;;;;;;;0.85;0.20;;;22.10;82.30;;;;;;4133507;28;20878;-75
2022/07/01 01:55:13;;;;;;;0.00;0.00;;;22.10;82.20;;;;;;4135435;28;20112;-75
2022/07/01 01:57:15;;;;;;;1.77;0.20;;;22.10;82.20;;;;;;4134404;28;20145;-75
2022/07/01 01:59:17;;;;;;;0.20;0.15;;;22.10;82.10;;;;;;4134376;28;20062;-75
2022/07/01 02:01:19;;;;;;;0.20;0.20;;;22.10;82.10;;;;;;4133240;28;20063;-75
2022/07/01 02:03:21;;;;;;;0.00;0.00;;;22.10;82.00;;;;;;4136215;28;20054;-75
2022/07/01 02:05:23;;;;;;;0.68;0.20;;;22.10;82.00;;;;;;4132998;28;20070;-74
2022/07/01 02:07:25;;;;;;;0.45;0.10;;;22.10;81.90;;;;;;4130169;28;20105;-75
2022/07/01 02:09:28;;;;;;;0.03;0.00;;;22.10;81.90;;;;;;4134645;28;20094;-74
2022/07/01 02:11:29;;;;;;;0.60;0.20;;;22.10;81.80;;;;;;4135564;28;20058;-75
2022/07/01 02:13:31;;;;;;;0.10;0.10;;;22.10;81.80;;;;;;4133503;28;20059;-74
2022/07/01 02:15:33;;;;;;;0.35;0.20;;;22.10;81.80;;;;;;4138535;28;20059;-75
2022/07/01 02:17:35;;;;;;;0.77;0.28;;;22.00;81.60;;;;;;4134859;28;20266;-75
2022/07/01 02:19:36;;;;;;;0.43;0.15;;;22.00;81.60;;;;;;4132957;28;20059;-75
2022/07/01 02:21:38;;;;;;;0.28;0.10;;;22.00;81.50;;;;;;4135137;28;20065;-75
2022/07/01 02:23:40;;;;;;;1.75;0.10;;;22.00;81.50;;;;;;4134615;28;20057;-76
2022/07/01 02:25:42;;;;;;;0.32;0.10;;;22.00;81.40;;;;;;4133942;28;20078;-75
2022/07/01 02:27:43;;;;;;;0.17;0.05;;;22.00;81.40;;;;;;4135183;28;20073;-75
2022/07/01 02:29:45;;;;;;;1.00;0.28;;;22.00;81.30;;;;;;4134264;28;20058;-74
2022/07/01 02:31:47;;;;;;;0.45;0.40;;;22.00;81.30;;;;;;4132880;28;20154;-75
2022/07/01 02:33:49;;;;;;;0.20;0.20;;;22.00;81.20;;;;;;4134732;28;20082;-75
2022/07/01 02:35:51;;;;;;;0.40;0.20;;;22.00;81.20;;;;;;4135760;28;20065;-75
2022/07/01 02:37:52;;;;;;;0.10;0.10;;;22.00;81.10;;;;;;4133177;28;20180;-75
2022/07/01 02:39:54;;;;;;;0.10;0.10;;;22.00;81.10;;;;;;4133738;28;20059;-74
2022/07/01 02:44:16;;;;;;;0.70;0.10;;;21.90;81.00;;;;;;4132967;28;20149;-75
2022/07/01 02:46:18;;;;;;;0.17;0.17;;;21.90;80.90;;;;;;4132674;28;20069;-75
2022/07/01 02:48:20;;;;;;;0.30;0.20;;;21.90;80.80;;;;;;4132277;28;20067;-75
2022/07/01 02:50:22;;;;;;;0.63;0.20;;;21.90;80.80;;;;;;4132850;28;20896;-75
2022/07/01 02:52:32;;;;;;;0.32;0.13;;;21.90;80.90;;;;;;4132207;28;20086;-76
2022/07/01 02:54:33;;;;;;;0.73;0.30;;;21.90;80.80;;;;;;4133028;28;20146;-75
2022/07/01 02:56:36;;;;;;;0.20;0.20;;;21.90;80.80;;;;;;4133665;28;20063;-74
2022/07/01 02:58:37;;;;;;;0.32;0.20;;;21.90;80.80;;;;;;4136078;28;20809;-75
2022/07/01 03:00:39;;;;;;;0.10;0.10;;;21.90;80.70;;;;;;4130472;28;20098;-75
2022/07/01 03:02:41;;;;;;;0.40;0.10;;;21.90;80.70;;;;;;4132877;28;20101;-76
2022/07/01 03:04:43;;;;;;;0.10;0.10;;;21.90;80.60;;;;;;4132506;28;20890;-74
2022/07/01 03:06:44;;;;;;;0.20;0.20;;;21.90;80.60;;;;;;4133751;28;20142;-75
2022/07/01 03:08:46;;;;;;;0.17;0.17;;;21.80;80.50;;;;;;4134736;28;20063;-75
2022/07/01 03:10:48;;;;;;;0.70;0.13;;;21.90;80.50;;;;;;4135275;28;20094;-75
2022/07/01 03:12:49;;;;;;;0.28;0.20;;;21.80;80.50;;;;;;4132710;28;20173;-75
2022/07/01 03:14:52;;;;;;;0.22;0.22;;;21.80;80.50;;;;;;4129408;28;20054;-75
2022/07/01 03:16:54;;;;;;;0.73;0.30;;;21.80;80.40;;;;;;4134055;28;20094;-75
2022/07/01 03:18:57;;;;;;;1.58;0.40;;;21.80;80.40;;;;;;4132425;28;20158;-75
2022/07/01 03:20:59;;;;;;;0.32;0.30;;;21.80;80.40;;;;;;4134066;28;20055;-75
2022/07/01 03:23:01;;;;;;;0.68;0.38;;;21.80;80.40;;;;;;4133709;28;20094;-75
2022/07/01 03:25:03;;;;;;;0.30;0.28;;;21.80;80.30;;;;;;4134749;28;20102;-75
2022/07/01 03:27:05;;;;;;;0.65;0.30;;;21.80;80.30;;;;;;4132522;28;20893;-75
2022/07/01 03:29:07;;;;;;;0.25;0.25;;;21.80;80.20;;;;;;4132452;28;20170;-75
2022/07/01 03:31:09;;;;;;;0.20;0.20;;;21.80;80.20;;;;;;4134387;28;20176;-75
2022/07/01 03:33:10;;;;;;;0.73;0.55;;;21.80;80.10;;;;;;4132411;28;20178;-75
2022/07/01 03:37:32;;;;;;;0.77;0.40;;;21.70;80.80;;;;;;4134160;28;20058;-74
2022/07/01 03:39:35;;;;;;;0.32;0.30;;;21.70;80.00;;;;;;4133291;28;20082;-75
2022/07/01 03:41:37;;;;;;;0.30;0.30;;;21.70;80.00;;;;;;4132226;28;20941;-75
2022/07/01 03:43:39;;;;;;;0.35;0.30;;;21.70;79.90;;;;;;4134686;28;20059;-75
2022/07/01 03:45:40;;;;;;;0.43;0.30;;;21.70;79.90;;;;;;4134721;28;20905;-75
2022/07/01 03:47:46;;;;;;;0.20;0.20;;;21.70;79.80;;;;;;4134577;28;20065;-76
2022/07/01 03:49:48;;;;;;;0.20;0.20;;;21.70;79.80;;;;;;4131306;28;20102;-76
2022/07/01 03:51:50;;;;;;;0.13;0.10;;;21.70;79.80;;;;;;4133538;28;20098;-75
2022/07/01 03:56:12;;;;;;;0.20;0.20;;;21.70;79.80;;;;;;4133771;28;20066;-73
2022/07/01 03:58:14;;;;;;;0.20;0.20;;;21.70;79.80;;;;;;4134352;28;20203;-75
2022/07/01 04:00:20;;;;;;;0.35;0.35;;;21.70;79.70;;;;;;4133545;28;20189;-76
2022/07/01 04:02:21;;;;;;;0.25;0.20;;;21.60;79.70;;;;;;4129576;28;20786;-75
2022/07/01 04:04:24;;;;;;;0.20;0.20;;;21.70;79.70;;;;;;4132910;28;20062;-76
2022/07/01 04:06:26;;;;;;;0.22;0.20;;;21.70;79.70;;;;;;4133584;28;20681;-76
2022/07/01 04:08:28;;;;;;;0.77;0.40;;;21.70;79.70;;;;;;4132304;28;20098;-75
2022/07/01 04:10:32;;;;;;;0.35;0.20;;;21.60;79.60;;;;;;4136488;28;20062;-77
2022/07/01 04:12:34;;;;;;;0.22;0.17;;;21.70;79.60;;;;;;4132381;28;21123;-77
2022/07/01 04:14:36;;;;;;;0.20;0.17;;;21.60;79.50;;;;;;4131920;28;20817;-77
2022/07/01 04:16:39;;;;;;;0.32;0.15;;;21.60;79.40;;;;;;4132195;28;20063;-77
2022/07/01 04:18:41;;;;;;;0.15;0.10;;;21.60;79.40;;;;;;4132571;28;20158;-77
2022/07/01 04:22:32;;;;;;;0.52;0.25;;;21.60;79.40;;;;;;4131433;28;20055;-77
2022/07/01 04:23:04;;;;;;;0.10;0.10;;;21.60;79.40;;;;;;4132062;28;20058;-76
2022/07/01 04:25:07;;;;;;;0.52;0.20;;;21.60;79.40;;;;;;4133469;28;20910;-77
2022/07/01 04:27:09;;;;;;;0.40;0.10;;;21.50;79.20;;;;;;4133240;28;20065;-77
2022/07/01 04:29:11;;;;;;;0.38;0.20;;;21.60;79.30;;;;;;4140322;28;20058;-76
2022/07/01 04:31:12;;;;;;;0.52;0.20;;;21.60;79.40;;;;;;4134461;28;20846;-76
2022/07/01 04:33:14;;;;;;;0.10;0.10;;;21.60;79.40;;;;;;4135670;28;20149;-75
2022/07/01 04:35:16;;;;;;;0.17;0.15;;;21.60;79.40;;;;;;4135764;28;20649;-77
2022/07/01 04:37:17;;;;;;;0.17;0.10;;;21.50;79.20;;;;;;4134624;28;20058;-77
2022/07/01 04:39:19;;;;;;;1.85;0.10;;;21.60;79.30;;;;;;4136731;28;20102;-77
2022/07/01 04:43:41;;;;;;;0.68;0.10;;;21.50;79.20;;;;;;4133879;28;20178;-76
2022/07/01 04:45:43;;;;;;;1.02;0.13;;;21.50;79.20;;;;;;4131527;28;20170;-77
2022/07/01 04:47:45;;;;;;;0.40;0.20;;;21.50;79.20;;;;;;4136142;28;20165;-76
2022/07/01 04:49:46;;;;;;;0.20;0.17;;;21.50;79.20;;;;;;4135791;28;20061;-76
2022/07/01 04:51:48;;;;;;;0.20;0.20;;;21.50;79.20;;;;;;4131743;28;20109;-76
2022/07/01 04:53:50;;;;;;;0.30;0.30;;;21.50;79.30;;;;;;4134235;28;20104;-75
2022/07/01 04:55:52;;;;;;;1.42;0.17;;;21.50;79.30;;;;;;4137275;28;20062;-76
2022/07/01 04:57:54;;;;;;;0.25;0.20;;;21.50;79.30;;;;;;4124358;28;20149;-76
2022/07/01 04:59:55;;;;;;;0.28;0.10;;;21.50;79.30;;;;;;4130794;28;20061;-75
2022/07/01 05:01:58;;;;;;;0.57;0.30;;;21.50;79.30;;;;;;4130477;28;20058;-76
2022/07/01 05:04:00;;;;;;;1.17;0.20;;;21.50;79.40;;;;;;4135262;28;20059;-77
2022/07/01 05:06:02;;;;;;;1.02;0.20;;;21.50;79.40;;;;;;4134039;28;20070;-77
2022/07/01 05:08:04;;;;;;;1.35;0.17;;;21.50;79.40;;;;;;4131878;28;20059;-76
2022/07/01 05:10:06;;;;;;;2.97;0.30;;;21.50;79.40;;;;;;4132499;28;20055;-77
2022/07/01 05:12:08;;;;;;;0.40;0.10;;;21.50;79.40;;;;;;4138776;28;20065;-77
2022/07/01 05:14:10;;;;;;;1.25;0.15;;;21.50;79.40;;;;;;4133053;28;20094;-77
2022/07/01 05:16:12;;;;;;;1.13;0.30;;;21.50;79.50;;;;;;4136337;28;20095;-77
2022/07/01 05:22:54;;;;;;;0.80;0.45;;;21.50;79.50;;;;;;4133132;28;20063;-75
2022/07/01 05:24:56;;;;;;;1.52;0.30;;;21.50;79.50;;;;;;4133305;28;20065;-77
2022/07/01 05:26:59;;;;;;;3.33;0.30;;;21.50;79.50;;;;;;4139070;28;20101;-77
2022/07/01 05:29:01;;;;;;;0.45;0.20;;;21.50;79.50;;;;;;4135359;28;20108;-77
2022/07/01 05:31:03;;;;;;;2.15;0.32;;;21.50;79.50;;;;;;4133477;28;20199;-75
2022/07/01 05:33:05;;;;;;;2.50;0.43;;;21.50;79.50;;;;;;4133600;28;20059;-76
2022/07/01 05:35:07;;;;;;;2.58;0.30;;;21.50;79.60;;;;;;4133941;28;20059;-75
2022/07/01 05:37:08;;;;;;;2.17;0.35;;;21.50;79.60;;;;;;4134308;28;20051;-76
2022/07/01 05:39:11;;;;;;;1.40;0.50;;;21.50;79.60;;;;;;4133187;28;20969;-75
2022/07/01 05:41:13;;;;;;;1.15;0.40;;;21.50;79.70;;;;;;4132823;28;20173;-76
2022/07/01 05:43:15;;;;;;;2.35;0.20;;;21.50;79.70;;;;;;4134438;28;20059;-75
2022/07/01 05:45:16;;;;;;;0.50;0.50;;;21.50;79.60;;;;;;4133762;28;20169;-75
2022/07/01 05:47:18;;;;;;;1.48;0.40;;;21.50;79.70;;;;;;4132699;28;20063;-75
2022/07/01 05:49:20;;;;;;;6.10;0.55;;;21.50;79.70;;;;;;4131668;28;20151;-76
2022/07/01 05:51:22;;;;;;;2.47;0.40;;;21.50;79.70;;;;;;4133183;28;20059;-76
2022/07/01 05:53:23;;;;;;;0.22;0.20;;;21.50;79.70;;;;;;4133139;28;20058;-75
2022/07/01 05:55:25;;;;;;;1.55;0.28;;;21.50;79.80;;;;;;4134739;28;20090;-75
2022/07/01 05:57:27;;;;;;;3.97;0.40;;;21.50;79.80;;;;;;4131335;28;20929;-76
2022/07/01 05:59:29;;;;;;;0.93;0.20;;;21.50;79.70;;;;;;4135074;28;20659;-75
2022/07/01 06:01:30;;;;;;;2.22;0.20;;;21.50;79.80;;;;;;4132428;28;20090;-75
2022/07/01 06:03:32;;;;;;;1.40;0.60;;;21.50;79.80;;;;;;4129845;28;20058;-76
2022/07/01 06:05:34;;;;;;;0.28;0.25;;;21.50;79.80;;;;;;4132990;28;20063;-76
2022/07/01 06:07:36;;;;;;;0.47;0.30;;;21.50;79.80;;;;;;4132311;28;20889;-75
2022/07/01 06:09:38;;;;;;;0.63;0.30;;;21.40;79.70;;;;;;4133216;28;20062;-76
2022/07/01 06:11:39;;;;;;;1.13;0.20;;;21.40;79.70;;;;;;4134078;28;20801;-76
2022/07/01 06:13:41;;;;;;;1.67;0.30;;;21.40;79.60;;;;;;4130603;28;20124;-76
2022/07/01 06:15:43;;;;;;;0.75;0.30;;;21.40;79.70;;;;;;4132672;28;20058;-76
2022/07/01 06:17:45;;;;;;;0.20;0.20;;;21.40;79.60;;;;;;4118654;28;21000;-76
2022/07/01 06:19:46;;;;;;;1.00;0.20;;;21.40;79.60;;;;;;4130571;28;20069;-76
2022/07/01 06:21:48;;;;;;;0.35;0.20;;;21.40;79.60;;;;;;4133353;28;20156;-76
2022/07/01 06:23:50;;;;;;;0.30;0.20;;;21.40;79.60;;;;;;4131988;28;20174;-75
2022/07/01 06:25:52;;;;;;;0.10;0.10;;;21.40;79.60;;;;;;4132866;28;20157;-76
2022/07/01 06:27:53;;;;;;;0.52;0.20;;;21.40;79.60;;;;;;4131685;28;20063;-76
2022/07/01 06:29:55;;;;;;;0.88;0.10;;;21.40;79.60;;;;;;4127195;28;20166;-76
2022/07/01 06:31:57;;;;;;;0.15;0.10;;;21.40;79.60;;;;;;4129357;28;20086;-76
2022/07/01 06:34:00;;;;;;;0.70;0.30;;;21.40;79.60;;;;;;4132561;28;20130;-76
2022/07/01 06:36:01;;;;;;;0.30;0.20;;;21.40;79.60;;;;;;4133243;28;20902;-76
2022/07/01 06:38:03;;;;;;;0.20;0.10;;;21.40;79.50;;;;;;4131434;28;20770;-76
2022/07/01 06:40:06;;;;;;;0.20;0.20;;;21.40;79.70;;;;;;4131926;28;20142;-76
2022/07/01 06:42:08;;;;;;;0.28;0.10;;;21.40;79.50;;;;;;4131725;28;20098;-76
2022/07/01 06:44:10;;;;;;;1.52;0.30;;;21.40;79.50;;;;;;4131700;28;20197;-71
2022/07/01 06:46:11;;;;;;;1.30;0.25;;;21.40;79.50;;;;;;4132281;28;20050;-70
2022/07/01 06:48:14;;;;;;;6.38;3.00;;;21.40;79.60;;;;;;4131842;28;20066;-69
2022/07/01 06:50:16;;;;;;;5.03;1.77;;;21.40;79.60;;;;;;4132565;28;20058;-71
2022/07/01 06:52:17;;;;;;;2.25;1.77;;;21.40;79.70;;;;;;4131485;28;20065;-71
2022/07/01 06:54:19;;;;;;;3.92;1.15;;;21.40;79.80;;;;;;4131923;28;20060;-70
2022/07/01 06:56:21;;;;;;;0.82;0.73;;;21.40;79.80;;;;;;4132908;28;20063;-72
2022/07/01 06:58:22;;;;;;;1.08;0.88;;;21.40;79.80;;;;;;4130570;28;20058;-75
2022/07/01 07:00:24;;;;;;;1.67;0.90;;;21.40;79.80;;;;;;4129040;28;20063;-76
2022/07/01 07:02:26;;;;;;;1.50;0.75;;;21.40;79.80;;;;;;4131038;28;20054;-75
2022/07/01 07:04:30;;;;;;;2.67;0.63;;;21.40;79.80;;;;;;4132771;28;20181;-75
2022/07/01 07:06:52;;;;;;;1.33;0.40;;;21.40;79.70;;;;;;4131809;28;20059;-76
2022/07/01 07:08:53;;;;;;;1.48;0.47;;;21.40;79.70;;;;;;4132788;28;20090;-77
2022/07/01 07:10:55;;;;;;;3.47;0.82;;;21.40;79.70;;;;;;4131858;28;20098;-77
2022/07/01 07:12:57;;;;;;;3.28;0.60;;;21.40;79.70;;;;;;4131941;28;20066;-77
2022/07/01 07:14:59;;;;;;;4.85;0.50;;;21.40;79.70;;;;;;4130053;28;20173;-77
2022/07/01 07:17:00;;;;;;;2.50;0.52;;;21.40;79.60;;;;;;4131697;28;20065;-77
2022/07/01 07:19:02;;;;;;;3.58;0.50;;;21.40;79.70;;;;;;4132787;28;20063;-76
2022/07/01 07:21:04;;;;;;;0.90;0.25;;;21.40;79.60;;;;;;4130370;28;20064;-74
2022/07/01 07:23:06;;;;;;;1.17;0.40;;;21.40;79.60;;;;;;4131160;28;20098;-74
2022/07/01 07:25:08;;;;;;;2.47;1.17;;;21.40;79.60;;;;;;4132307;28;20110;-74
2022/07/01 07:27:10;;;;;;;2.90;0.57;;;21.40;79.60;;;;;;4132076;28;20118;-74
2022/07/01 07:29:12;;;;;;;3.60;0.47;;;21.40;79.60;;;;;;4134214;28;20065;-74
2022/07/01 07:31:14;;;;;;;3.53;0.50;;;21.40;79.60;;;;;;4131512;28;20058;-74
2022/07/01 07:33:16;;;;;;;3.50;0.30;;;21.30;79.50;;;;;;4131372;28;20736;-74
2022/07/01 07:35:18;;;;;;;0.70;0.50;;;21.30;79.40;;;;;;4135390;28;20061;-74
2022/07/01 07:37:19;;;;;;;0.82;0.40;;;21.30;79.50;;;;;;4133563;28;20177;-74
2022/07/01 07:39:21;;;;;;;0.80;0.32;;;21.30;79.40;;;;;;4129227;28;20059;-76
2022/07/01 07:41:22;;;;;;;1.17;0.30;;;21.30;79.40;;;;;;4133332;28;20157;-74
2022/07/01 07:43:24;;;;;;;1.38;0.55;;;21.30;79.50;;;;;;4132882;28;20107;-76
2022/07/01 07:45:26;;;;;;;0.75;0.50;;;21.30;79.50;;;;;;4135428;28;20065;-77
2022/07/01 07:47:27;;;;;;;2.63;0.40;;;21.30;79.50;;;;;;4134857;28;20059;-76
2022/07/01 07:49:29;;;;;;;1.52;0.50;;;21.40;79.60;;;;;;4135504;28;20065;-76
2022/07/01 07:51:31;;;;;;;0.77;0.40;;;21.40;79.50;;;;;;4130968;28;20058;-76
2022/07/01 07:53:33;;;;;;;1.35;0.40;;;21.40;79.50;;;;;;4132565;28;20692;-76
2022/07/01 07:55:34;;;;;;;0.30;0.20;;;21.40;79.40;;;;;;4130835;28;20081;-76
2022/07/01 07:57:37;;;;;;;2.25;0.47;;;21.40;79.40;;;;;;4131333;28;20059;-77
2022/07/01 07:59:38;;;;;;;1.58;0.40;;;21.30;79.40;;;;;;4133993;28;20059;-76
2022/07/01 08:01:40;;;;;;;2.47;0.38;;;21.40;79.40;;;;;;4133774;28;20154;-77
2022/07/01 08:03:42;;;;;;;2.05;0.60;;;21.40;79.40;;;;;;4131317;28;20137;-76
2022/07/01 08:05:44;;;;;;;0.20;0.20;;;21.30;79.40;;;;;;4131199;28;20065;-75
2022/07/01 08:07:46;;;;;;;1.67;0.30;;;21.30;79.40;;;;;;4133012;28;20059;-75
2022/07/01 08:09:49;;;;;;;4.00;0.30;;;21.40;79.40;;;;;;4132050;28;20051;-76
2022/07/01 08:11:50;;;;;;;0.77;0.32;;;21.30;79.30;;;;;;4131839;28;20874;-75
2022/07/01 08:13:52;;;;;;;0.30;0.30;;;21.30;79.30;;;;;;4131603;28;20101;-76
2022/07/01 08:15:54;;;;;;;1.38;0.40;;;21.30;79.40;;;;;;4132072;28;20777;-76
2022/07/01 08:17:56;;;;;;;0.40;0.20;;;21.30;79.30;;;;;;4131936;28;20058;-76
2022/07/01 08:19:58;;;;;;;1.67;0.43;;;21.30;79.40;;;;;;4131893;28;20073;-76
2022/07/01 08:22:00;;;;;;;0.10;0.10;;;21.30;79.40;;;;;;4129885;28;20133;-75
2022/07/01 08:24:02;;;;;;;1.08;0.20;;;21.30;79.40;;;;;;4132821;28;20094;-75
2022/07/01 08:26:04;;;;;;;0.52;0.32;;;21.30;79.40;;;;;;4133356;28;20069;-76
2022/07/01 08:28:05;;;;;;;0.65;0.30;;;21.30;79.40;;;;;;4133526;28;20059;-76
2022/07/01 08:30:08;;;;;;;0.17;0.10;;;21.30;79.30;;;;;;4133255;28;20101;-75
2022/07/01 08:32:09;;;;;;;1.40;0.30;;;21.30;79.30;;;;;;4131294;28;20059;-75
2022/07/01 08:34:11;;;;;;;0.32;0.20;;;21.30;79.40;;;;;;4137301;28;20863;-77
2022/07/01 08:36:15;;;;;;;0.45;0.20;;;21.30;79.30;;;;;;4127058;28;20618;-76
2022/07/01 08:38:17;;;;;;;0.10;0.10;;;21.30;79.30;;;;;;4131756;28;20058;-76
2022/07/01 08:40:28;;;;;;;0.10;0.10;;;21.30;79.30;;;;;;4134992;28;20066;-76
2022/07/01 08:42:30;;;;;;;0.20;0.20;;;21.30;79.30;;;;;;4134702;28;20063;-76
2022/07/01 08:44:31;;;;;;;0.30;0.30;;;21.30;79.30;;;;;;4132003;28;20169;-77
2022/07/01 08:46:34;;;;;;;1.63;0.28;;;21.30;79.30;;;;;;4131982;28;20085;-75
2022/07/01 08:48:35;;;;;;;0.70;0.17;;;21.30;79.30;;;;;;4131405;28;20065;-76
2022/07/01 08:50:39;;;;;;;0.43;0.20;;;21.30;79.30;;;;;;4134733;28;20893;-76
2022/07/01 08:52:41;;;;;;;0.20;0.10;;;21.30;79.30;;;;;;4131867;28;20082;-76
2022/07/01 08:54:43;;;;;;;0.10;0.10;;;21.30;79.30;;;;;;4131400;28;20141;-76
2022/07/01 08:56:45;;;;;;;0.80;0.32;;;21.30;79.30;;;;;;4132593;28;20877;-76
2022/07/01 08:58:51;;;;;;;0.10;0.10;;;21.30;79.30;;;;;;4131303;28;20839;-76
2022/07/01 09:00:53;;;;;;;1.02;0.40;;;21.30;79.20;;;;;;4130122;28;20069;-77
2022/07/01 09:03:03;;;;;;;0.80;0.30;;;21.30;79.30;;;;;;4134266;28;20057;-76
2022/07/01 09:05:05;;;;;;;0.43;0.20;;;21.30;79.30;;;;;;4129448;28;20846;-76
2022/07/01 09:07:09;;;;;;;0.22;0.20;;;21.30;79.30;;;;;;4130860;28;20067;-76
2022/07/01 09:09:20;;;;;;;0.30;0.30;;;21.30;80.00;;;;;;4130658;28;20122;-76
2022/07/01 09:11:24;;;;;;;0.47;0.28;;;21.30;79.30;;;;;;4132233;28;20059;-76
2022/07/01 09:13:26;;;;;;;0.40;0.20;;;21.30;79.30;;;;;;4129169;28;20095;-76
2022/07/01 09:15:30;;;;;;;0.43;0.10;;;21.30;79.30;;;;;;4131977;28;20059;-76
2022/07/01 09:17:38;;;;;;;1.73;0.45;;;21.20;79.20;;;;;;4133859;28;20758;-76
2022/07/01 09:19:40;;;;;;;0.20;0.20;;;21.20;79.20;;;;;;4134079;28;20059;-76
2022/07/01 09:21:49;;;;;;;0.10;0.10;;;21.20;79.20;;;;;;4136440;28;20058;-76
2022/07/01 09:23:51;;;;;;;0.13;0.10;;;21.20;79.20;;;;;;4131982;28;20186;-76
2022/07/01 09:25:53;;;;;;;0.20;0.20;;;21.20;79.20;;;;;;4134658;28;20166;-76
2022/07/01 09:28:14;;;;;;;0.25;0.20;;;21.20;79.30;;;;;;4134021;28;20067;-76
2022/07/01 09:30:16;;;;;;;0.73;0.22;;;21.20;79.30;;;;;;4133263;28;20054;-75
2022/07/01 09:32:20;;;;;;;0.73;0.22;;;21.20;79.30;;;;;;4133540;28;20167;-75
2022/07/01 09:34:22;;;;;;;0.35;0.35;;;21.20;79.30;;;;;;4138851;28;20069;-76
2022/07/01 09:36:24;;;;;;;0.65;0.20;;;21.20;79.30;;;;;;4134519;28;20084;-76
2022/07/01 09:38:26;;;;;;;0.28;0.20;;;21.20;79.30;;;;;;4133862;28;20047;-76
2022/07/01 09:40:45;;;;;;;2.15;0.25;;;21.20;79.30;;;;;;4130276;28;20054;-76
2022/07/01 09:42:47;;;;;;;0.10;0.10;;;21.20;79.30;;;;;;4134683;28;20920;-76
2022/07/01 09:45:02;;;;;;;0.35;0.28;;;21.20;79.30;;;;;;4133215;28;20145;-76
2022/07/01 09:47:07;;;;;;;0.88;0.15;;;21.20;79.40;;;;;;4131638;28;20059;-76
2022/07/01 09:49:09;;;;;;;0.20;0.20;;;21.20;79.20;;;;;;4135994;28;20080;-75
2022/07/01 09:51:12;;;;;;;0.40;0.20;;;21.20;79.30;;;;;;4132175;28;20061;-76
2022/07/01 09:53:15;;;;;;;0.35;0.20;;;21.20;79.30;;;;;;4135702;28;20090;-76
2022/07/01 09:55:17;;;;;;;0.82;0.20;;;21.20;79.30;;;;;;4133406;28;20805;-75
2022/07/01 09:57:20;;;;;;;0.20;0.20;;;21.20;79.20;;;;;;4134741;28;20205;-75
2022/07/01 09:59:22;;;;;;;0.20;0.20;;;21.20;79.20;;;;;;4133995;28;20150;-75
2022/07/01 10:01:24;;;;;;;0.30;0.20;;;21.20;79.30;;;;;;4136197;28;20058;-75
2022/07/01 10:03:26;;;;;;;0.40;0.20;;;21.20;79.30;;;;;;4135396;28;20057;-75
2022/07/01 10:05:31;;;;;;;0.10;0.10;;;21.20;79.30;;;;;;4135509;28;20109;-75
2022/07/01 10:07:52;;;;;;;0.20;0.20;;;21.20;79.20;;;;;;4134719;28;20055;-75
2022/07/01 10:09:53;;;;;;;0.32;0.10;;;21.20;79.20;;;;;;4133152;28;20069;-74
2022/07/01 10:12:18;;;;;;;0.13;0.03;;;21.20;79.20;;;;;;4132737;28;20063;-75
2022/07/01 10:14:21;;;;;;;0.30;0.13;;;21.20;79.20;;;;;;4126859;28;20936;-76
2022/07/01 10:16:22;;;;;;;0.30;0.20;;;21.20;79.20;;;;;;4133859;28;20173;-75
2022/07/01 10:18:26;;;;;;;0.30;0.20;;;21.20;79.20;;;;;;4132813;28;20051;-75
2022/07/01 10:20:30;;;;;;;0.98;0.25;;;21.20;79.20;;;;;;4131738;28;20101;-73
